Hlavní strana
METAR-TAF:

METAR-TAF

Letiště :

Perpignan, Francie

zeměpisná šířka: 42-44N, zeměpisná délka: 002-52E, výška: 43 m

Aktuální stav počasí

Zpráva byla vytvořena před 27 minutami, v 03:30 UTC
vítr z různých směrů 3 kt
Teplota 18°C
Vlhkost vzduchu 59%
Tlak 1025 hPa
Viditelnost 10 km a více
Žádná oblačnost pod 1500 m, nevyskytují se cumulonimby.

METAR: LFMP 260330Z AUTO VRB03KT CAVOK 18/10 Q1025 NOSIG

Čas: 05:57 (03:57 UTC)

Předpověď počasí

Zpráva byla vytvořena před 1 hodinou a 57 minutami, v 02:00 UTC
Předpověď platná od 26 v 03 UTC do 27 v 03 UTC
Západojihozápadní vítr 6 kt
Viditelnost 10 km a více
Žádná oblačnost pod 1500 m, nevyskytují se cumulonimby.
Změna
od 26 v 08 UTC do 26 v 09 UTC
Severoseverozápadní vítr 12 kt
Změna
od 26 v 16 UTC do 26 v 18 UTC
vítr z různých směrů 5 kt

TAF: LFMP 260200Z 2603/2703 24006KT CAVOK BECMG 2608/2609 33012KT BECMG 2616/2618 VRB05KT

Stav a předpovědi počasí z více než 4 000 letišť (zprávy METAR a TAF).

Červené a žluté tečky na mapě představují dostupné meteorologické stanice.

Když kurzor umístíte na tečku, zobrazí se název stanice.

Pak kliknutím zobrazíte stav a předpověď počasí.

Chcete-li změnit mapu, kliknutím na zelené tlačítko se znaménkem +mapu přiblížíte, kliknutím na zelené tlačítko se znaménkem – mapu oddálíte a kliknutím na zelené šipky přejdete na sousední mapy.


METAR-TAF: